logo
Games tagged Crowdfunded
# Game Release date
Price
Score rank
(Userscore / Metascore)
Owners
Players
Playtime (Median)
Developer(s)
Publisher(s)
1 Pillars of Eternity Mar 26, 2015 $29.99N/A (N/A/89%)1,000,000 .. 2,000,0000.79%00:01 (00:00)Obsidian EntertainmentParadox Interactive
2 Divinity: Original Sin (Classic) Jun 30, 2014 $39.99N/A (N/A/87%)1,000,000 .. 2,000,0000%00:00 (00:00)Larian StudiosLarian Studios
3 Wasteland 2: Director's Cut Sep 18, 2014 $29.99N/A (N/A/87%)500,000 .. 1,000,0000%00:00 (00:00)inXile EntertainmentinXile Entertainment
4 Sunless Skies: Sovereign Edition Jan 31, 2019 $24.99N/A (N/A/87%)500,000 .. 1,000,0000%00:00 (00:00)Failbetter GamesFailbetter Games
5 Grim Dawn Feb 25, 2016 $24.99N/A (N/A/83%)5,000,000 .. 10,000,0000.86%01:31 (00:35)Crate EntertainmentCrate Entertainment
6 Muv-Luv Alternative (マブラヴ オルタネイティヴ) Sep 18, 2017 $19.99N/A (N/A/83%)20,000 .. 50,0000%00:00 (00:00)aNCHOR Inc.aNCHOR Inc.
7 Skullgirls 2nd Encore Aug 22, 2013 $24.99N/A (N/A/83%)2,000,000 .. 5,000,0001.7%00:25 (00:25)Hidden Variable StudiosAutumn Games
8 The Banner Saga Jan 14, 2014 $7.99N/A (N/A/80%)500,000 .. 1,000,0000%00:00 (00:00)StoicStoic Studio
9 Kelvin and the Infamous Machine Jul 21, 2016 $9.99N/A (N/A/79%)20,000 .. 50,0000%00:00 (00:00)BlytsBlyts
10 Battle Chasers: Nightwar Oct 3, 2017 $7.49N/A (N/A/78%)200,000 .. 500,0000%00:00 (00:00)Airship SyndicateTHQ Nordic
11 Shadowrun Returns Jul 25, 2013 $9.99N/A (N/A/76%)1,000,000 .. 2,000,0000%00:00 (00:00)Harebrained SchemesParadox Interactive
12 Shantae: Half-Genie Hero Dec 20, 2016 $19.99N/A (N/A/76%)100,000 .. 200,0000%00:00 (00:00)WayForwardWayForward
13 Kingdom Come: Deliverance Feb 13, 2018 $29.99N/A (N/A/76%)2,000,000 .. 5,000,0003.64%17:13 (29:13)Warhorse StudiosWarhorse Studios, Prime Matter
14 Muv-Luv (マブラヴ) Jul 15, 2016 $11.99N/A (N/A/76%)50,000 .. 100,0000%00:00 (00:00)aNCHOR Inc.aNCHOR Inc.
15 Root Double -Before Crime * After Days- Xtend Edition Apr 27, 2016 $34.99N/A (N/A/75%)20,000 .. 50,0000%00:00 (00:00)Yeti, RegistaSekai Project
16 Spellcaster University Jun 15, 2021 $24.99N/A (N/A/73%)100,000 .. 200,0000%00:00 (00:00)Sneaky Yak StudioSneaky Yak Studio, WhisperGames
17 Guard Duty May 2, 2019 $9.99N/A (N/A/73%)0 .. 20,0000%00:00 (00:00)Headware GamesDigital Tribe
18 Broken Age Jan 28, 2014 $14.99N/A (N/A/73%)500,000 .. 1,000,0000%00:00 (00:00)Double Fine ProductionsDouble Fine Productions
19 Kona Mar 17, 2017 $14.99N/A (N/A/73%)100,000 .. 200,0002.38%02:27 (00:49)ParaboleParabole, Ravenscourt
20 Son of Nor Apr 27, 2015 $19.99N/A (N/A/54%)20,000 .. 50,0000%00:00 (00:00)stillalive studiosViva Media
21 Hex Gambit Oct 15, 2018 N/AN/A (N/A)0 .. 20,0000%00:00 (00:00)One Man Left StudiosOne Man Left Studios
22 Narcissu 1st & 2nd May 15, 2007 FreeN/A (N/A)200,000 .. 500,0000%00:00 (00:00)stage-nanaSekai Project
23 XOXO Droplets Aug 31, 2017 FreeN/A (N/A)20,000 .. 50,0000%00:00 (00:00)GB Patch GamesGB Patch Games
24 Voices from the Sea Sep 16, 2014 N/AN/A (N/A)100,000 .. 200,0000%00:00 (00:00)Zeiva IncZeiva Inc
25 Godus Jan 1, 1989 $14.99N/A (N/A)200,000 .. 500,0000%00:00 (00:00)22cans22cans Ltd.
26 Vex Sep 13, 2016 N/AN/A (N/A)0 .. 20,0000%00:00 (00:00)Stenner Studios, Killbox GraphicsUltraShock Gaming
27 Eternal Hour: Golden Hour Nov 27, 2017 FreeN/A (N/A)20,000 .. 50,0000%00:00 (00:00)Seventh Heart StudiosSekai Project
28 Spinnortality | cyberpunk management sim Feb 1, 2019 $9.99N/A (N/A)50,000 .. 100,0000%00:00 (00:00)James PattonClockwork Bird
29 Night of the Blood Moon Jan 21, 2019 $4.99N/A (N/A)0 .. 20,0000%00:00 (00:00)Tyler McDermottTyler McDermott
30 Shining Song Starnova Sep 13, 2018 $29.99N/A (N/A)50,000 .. 100,0000%00:00 (00:00)Love in SpaceSekai Project
31 Dream Rose Feb 10, 2019 $4.99N/A (N/A)0 .. 20,0000%00:00 (00:00)SupremePsychoFlux Entertainment
32 The Mystery Of Woolley Mountain Apr 10, 2019 $12.99N/A (N/A)0 .. 20,0000%00:00 (00:00)Lightfoot BrothersLightfoot Brothers
33 Tales of the Neon Sea Apr 29, 2019 $16.99N/A (N/A)500,000 .. 1,000,0000%00:00 (00:00)YiTi GamesThermite Games
34 Epitasis May 1, 2019 $14.99N/A (N/A)20,000 .. 50,0000%00:00 (00:00)Epitasis GamesEpitasis Games
35 ZED Jun 4, 2019 $17.99N/A (N/A)0 .. 20,0000%00:00 (00:00)Eagre GamesCyan Ventures
36 HARDCORE MECHA Jun 26, 2019 $19.99N/A (N/A)200,000 .. 500,0000%00:00 (00:00)RocketPunch GamesRocketPunch Games, Lightning Games
37 Muv-Luv photonflowers* Aug 2, 2019 $12.49N/A (N/A)0 .. 20,0000%00:00 (00:00)aNCHOR Inc.aNCHOR Inc.
38 Time of the Moon Nov 1, 2019 $9.99N/A (N/A)0 .. 20,0000%00:00 (00:00)DawnfoxDawnfox
39 Last Labyrinth(ラストラビリンス) Nov 12, 2019 $29.99N/A (N/A)0 .. 20,0000%00:00 (00:00)AMATA K.K.AMATA K.K.
40 Last Year Dec 9, 2019 N/AN/A (N/A)500,000 .. 1,000,0000%00:00 (00:00)Elastic GamesElastic Games
41 Caffeine: Victoria's Legacy Mar 20, 2020 $17.99N/A (N/A)0 .. 20,0000%00:00 (00:00)Kikai DigitalKikai Digital
42 Raindrops Apr 24, 2020 $4.99N/A (N/A)0 .. 20,0000%00:00 (00:00)PooboolPsychoFlux Entertainment
43 Fatal Twelve Mar 30, 2018 $19.99N/A (N/A)0 .. 20,0000%00:00 (00:00)aiueoKompanySekai Project
44 Sumer Feb 15, 2017 $14.99N/A (N/A)0 .. 20,0000%00:00 (00:00)Studio WumpusStudio Wumpus
45 ChronoClock Feb 28, 2017 $29.99N/A (N/A)0 .. 20,0000%00:00 (00:00)Purple SoftwareSekai Project
46 PATHOS Dec 5, 2017 FreeN/A (N/A)0 .. 20,0000%00:00 (00:00)BroguelikeAccordion Games
47 Arcana Heart 3 LOVEMAX SIXSTARS!!!!!! XTEND Dec 12, 2017 $29.99N/A (N/A)50,000 .. 100,0000%00:00 (00:00)Team ArcanaArc System Works
48 A Clockwork Ley-Line: The Borderline of Dusk Dec 18, 2017 $19.99N/A (N/A)0 .. 20,0000%00:00 (00:00)Unison Shift: BlossomSekai Project
49 Hoshizora no Memoria -Wish upon a Shooting Star- Dec 18, 2017 $19.99N/A (N/A)20,000 .. 50,0000%00:00 (00:00)FavoriteSekai Project
50 Chessaria: The Tactical Adventure (Chess) Mar 8, 2018 $19.99N/A (N/A)0 .. 20,0000%00:00 (00:00)Pixel WizardsPixel Wizards
51 YAGZZ! Mar 27, 2018 $0.99N/A (N/A)0 .. 20,0000%00:00 (00:00)Demin GamesDemin Games
52 NAIRI: Tower of Shirin Nov 29, 2018 $4.99N/A (N/A)20,000 .. 50,0000%00:00 (00:00)HomeBearStudioHound Picked Games
53 A Light in the Dark Jun 15, 2018 $14.99N/A (N/A)50,000 .. 100,0000%00:00 (00:00)CreSpirit, Storia, NarratorSekai Project
54 Indie Pogo Jul 10, 2018 $14.99N/A (N/A)20,000 .. 50,0000%00:00 (00:00)Lowe Bros. Studios LLCLowe Bros. Studios LLC
55 NEKOPARA Extra Jul 26, 2018 $4.99N/A (N/A)200,000 .. 500,0000%00:00 (00:00)NEKO WORKsSekai Project
56 Flowers Blooming at the End of Summer Feb 26, 2021 $0.99N/A (N/A)20,000 .. 50,0000%00:00 (00:00)MidnightWorksPsychoFlux Entertainment
57 A More Beautiful World - A Kinetic Visual Novel Sep 28, 2018 N/AN/A (N/A)0 .. 20,0000%00:00 (00:00)Afterthought StudiosSekai Project
58 Hoyeonjigi Nov 9, 2018 $3.99N/A (N/A)0 .. 20,0000%00:00 (00:00)YuraePsychoFlux Entertainment
59 Maia Nov 23, 2018 $24.99N/A (N/A)20,000 .. 50,0000%00:00 (00:00)Simon RothMachine Studios
60 Rabi-Ribi Jan 28, 2016 $6.11N/A (N/A)200,000 .. 500,0000%00:00 (00:00)CreSpirit, GemaYueCreSpirit
61 Borealis Sep 2, 2014 $4.99N/A (N/A)20,000 .. 50,0000%00:00 (00:00)Conrad NelsonNone
62 fault - milestone one Aug 9, 2013 $14.99N/A (N/A)200,000 .. 500,0000%00:00 (00:00)ALICE IN DISSONANCEALICE IN DISSONANCE
63 Catmouth Island Dec 31, 2014 $0.99N/A (N/A)20,000 .. 50,0000%00:00 (00:00)Colonthree EnterprisesColonthree Enterprises
64 Paparazzi Feb 17, 2015 $1.99N/A (N/A)0 .. 20,0000%00:00 (00:00)Pringo Dingo GamesPringo Dingo Games
65 WORLD END ECONOMiCA episode.02 Jul 21, 2015 $12.99N/A (N/A)20,000 .. 50,0000%00:00 (00:00)Spicy TailsSekai Project
66 Colonial Conquest Jul 28, 2015 $9.99N/A (N/A)20,000 .. 50,0000%00:00 (00:00)Argonauts Interactive, Collectif NemoïdPlug In Digital, Argonauts Interactive
67 Fallen: A2P Protocol Aug 14, 2015 $9.99N/A (N/A)50,000 .. 100,0000%00:00 (00:00)Red KatanaRed Katana
68 BEARZERKERS Oct 23, 2015 $12.99N/A (N/A)0 .. 20,0000%00:00 (00:00)WildgrassWildgrass
69 Narcissu 10th Anniversary Anthology Project Jan 27, 2016 $2.99N/A (N/A)50,000 .. 100,0000%00:00 (00:00)stage-nanaSekai Project
70 AR-K Jul 21, 2014 $7.99N/A (N/A)100,000 .. 200,0000%00:00 (00:00)GATO STUDIOGATO STUDIO
71 Aurora Dusk: Steam Age Apr 29, 2016 $9.99N/A (N/A)20,000 .. 50,0000%00:00 (00:00)Sylvain HarlautSylvain Harlaut
72 CLANNAD Side Stories Jun 2, 2016 $19.99N/A (N/A)20,000 .. 50,0000%00:00 (00:00)VisualArts/KeySekai Project
73 KARAKARA Jun 27, 2016 $9.99N/A (N/A)100,000 .. 200,0000%00:00 (00:00)calmeSekai Project
74 Ne no Kami: The Two Princess Knights of Kyoto Oct 26, 2016 $9.99N/A (N/A)0 .. 20,0000%00:00 (00:00)Kuro Irodoru YomijiSekai Project
75 Memory's Dogma CODE:01 Nov 4, 2016 $14.99N/A (N/A)20,000 .. 50,0000%00:00 (00:00)Liz-ArtsSekai Project
76 WORLD END ECONOMiCA episode.03 Dec 21, 2016 $12.99N/A (N/A)20,000 .. 50,0000%00:00 (00:00)Spicy TailsSekai Project
77 Walkerman May 22, 2017 $6.99N/A (N/A)0 .. 20,0000%00:00 (00:00)ScalemaiLSekai Project
78 Order of Ataxia: Initial Effects Aug 17, 2017 $9.99N/A (N/A)0 .. 20,0000%00:00 (00:00)IDHAS StudiosSekai Project
79 spaceBOUND Sep 1, 2017 $4.99N/A (N/A)0 .. 20,0000%00:00 (00:00)Gravity Whale GamesGravity Whale Games
80 Ayo the Clown Jul 27, 2021 $19.99N/A (N/A)0 .. 20,0000%00:00 (00:00)Cloud M1Cloud M1
81 からかい上手の高木さんVR 1学期 May 21, 2020 $13.99N/A (N/A)0 .. 20,0000%00:00 (00:00)KAYAC Inc.KAYAC Inc.
82 Log Jammers May 26, 2020 $4.99N/A (N/A)0 .. 20,0000%00:00 (00:00)Mega Cat StudiosMega Cat Studios
83 Muv-Luv photonmelodies♮ Jul 29, 2020 $14.99N/A (N/A)0 .. 20,0000%00:00 (00:00)aNCHOR Inc.aNCHOR Inc.
84 DRONE The Game Aug 1, 2020 $19.99N/A (N/A)50,000 .. 100,0000%00:00 (00:00)Five Studios InteractiveFive Studios Interactive
85 Trazz Jul 1, 2020 $9.99N/A (N/A)0 .. 20,0000%00:00 (00:00)Axoma GamesAxoma Games
86 Lancelot's Hangover: The Quest for the Holy Booze Oct 1, 2020 $14.99N/A (N/A)0 .. 20,0000%00:00 (00:00)Jean-Baptiste de ClerfaytJean-Baptiste de Clerfayt
87 Aquanox Deep Descent Oct 16, 2020 $29.99N/A (N/A)20,000 .. 50,0000%00:00 (00:00)Digital ArrowTHQ Nordic
88 Landflix Odyssey Nov 13, 2020 $14.99N/A (N/A)0 .. 20,0000%00:00 (00:00)Fantastico StudioFantastico Studio
89 Ne no Kami - The Two Princess Knights of Kyoto Part 2 Sep 7, 2017 $9.99N/A (N/A)0 .. 20,0000%00:00 (00:00)Kuro Irodoru YomijiSekai Project
90 Royal Alchemist Apr 30, 2020 $19.99N/A (N/A)0 .. 20,0000%00:00 (00:00)Nifty VisualsNifty Productions
91 The Piano That Stops Time Feb 20, 2022 N/AN/A (N/A)0 .. 20,0000%00:00 (00:00)CrocusWorksCrocusWorks
92 Black Geyser: Couriers of Darkness Mar 17, 2022 $29.99N/A (N/A)100,000 .. 200,0000%00:00 (00:00)GrapeOcean TechnologiesV Publishing, GrapeOcean Technologies
93 Painting VR Apr 14, 2022 $19.99N/A (N/A)0 .. 20,0000%00:00 (00:00)OisoiCybernetic Walrus
94 Boney's Research On Humans! Aug 24, 2022 $5.99N/A (N/A)0 .. 20,0000%00:00 (00:00)Carlos Garza, Carf Darko, Casey AtkinsCarlos Garza
95 1428: Shadows over Silesia Oct 4, 2022 $29.99N/A (N/A)0 .. 20,0000%00:00 (00:00)KUBI GamesKUBI Games
96 DAGURI: Gambling Apocalypse Oct 14, 2022 $2.99N/A (N/A)0 .. 20,0000%00:00 (00:00)DakeCraftPsychoFlux Entertainment
97 Chuck's Challenge 3D 2020 Sep 21, 2020 $9.99N/A (N/A)50,000 .. 100,0000%00:00 (00:00)Niffler Ltd.Niffler Ltd.
98 Influent Mar 20, 2014 $19.99N/A (N/A)200,000 .. 500,0000%00:00 (00:00)Rob HowlandThree Flip Studios
99 WORLD END ECONOMiCA episode.01 May 5, 2014 $12.99N/A (N/A)50,000 .. 100,0000%00:00 (00:00)Spicy TailsSekai Project
Overview

Crowdfunded

Games with this tag: 99
Average userscore: N/A%
Average metascore: 78.05%
Average playtime: 04:19
Total copies owned: 26,252,000
Average price: $15.2
Help

Owners: Estimated number of people owning this game. The number might be way too small for new releases and sometimes way too big for games that had free weekend event recently. Read more on About page.

Playtime: Average hours played in total per person that have actually launched this game since March 2009. This time is calculated for the whole lifetime, not for the particular year.

Average score: Average users and metacritic score for all games with this score assigned.

Average playtime: Average lifetime playtime for all games where this data is available.

Games in this genre: Self-explaining - number of games with this tag. Only inculdes games with sales data available.

Total copies owned: Refers to total copies of games with this tag acquired by users for the lifetime. Includes copies sold, downloaded for free and given out.

This number might be too small for recently released games or too big for games that had a free weekend in the last couple of months.

Graphs

Login required.

Please register or log in to see this information.

Login required.

Please register or log in to see this information.